createdAt,value
2022-10-13T00:01:37.360Z,92963.03
2022-10-13T00:04:40.422Z,92956.84
2022-10-13T00:07:43.418Z,92950.34
2022-10-13T00:10:48.017Z,92948.88
2022-10-13T00:13:53.184Z,92952.59
2022-10-13T00:16:57.032Z,92955.03
2022-10-13T00:20:00.235Z,92958.59
2022-10-13T00:23:03.225Z,92953.63
2022-10-13T00:26:09.137Z,92960.31
2022-10-13T00:29:12.163Z,92961.31
2022-10-13T00:32:15.272Z,92955.66
2022-10-13T00:35:18.447Z,92956.09
2022-10-13T00:38:22.816Z,92960.66
2022-10-13T00:41:26.030Z,92958.09
2022-10-13T00:45:01.575Z,92962.97
2022-10-13T00:48:04.773Z,92959.44
2022-10-13T00:51:08.839Z,92960.34
2022-10-13T00:54:18.009Z,92956.53
2022-10-13T00:57:21.592Z,92956.53
2022-10-13T01:00:25.098Z,92959.88
2022-10-13T01:03:28.623Z,92954.88
2022-10-13T01:06:31.877Z,92959.63
2022-10-13T01:09:42.888Z,92959.16
2022-10-13T01:12:57.646Z,92959.31
2022-10-13T01:16:12.698Z,92963.81
2022-10-13T01:19:45.881Z,92954.72
2022-10-13T01:23:01.678Z,92956.28
2022-10-13T01:26:38.713Z,92951.44
2022-10-13T01:30:03.365Z,92953.09
2022-10-13T01:33:34.360Z,92946.16
2022-10-13T01:36:47.709Z,92952.22
2022-10-13T01:39:58.528Z,92954.28
2022-10-13T01:43:25.883Z,92954.94
2022-10-13T01:46:33.149Z,92954.94
2022-10-13T01:49:37.091Z,92959.50
2022-10-13T01:52:40.998Z,92948.47
2022-10-13T01:56:10.272Z,92937.44
2022-10-13T01:59:17.647Z,92948.56
2022-10-13T02:02:32.994Z,92956.47
2022-10-13T02:05:50.749Z,92938.91
2022-10-13T02:08:57.650Z,92940.88
2022-10-13T02:12:10.784Z,92930.50
2022-10-13T02:15:20.342Z,92932.50
2022-10-13T02:18:29.131Z,92933.22
2022-10-13T02:21:32.989Z,92926.06
2022-10-13T02:24:38.293Z,92928.72
2022-10-13T02:27:42.371Z,92922.84
2022-10-13T02:30:46.734Z,92913.09
2022-10-13T02:33:49.713Z,92908.53
2022-10-13T02:36:53.095Z,92896.13
2022-10-13T02:39:56.013Z,92890.22
2022-10-13T02:42:59.055Z,92881.03
2022-10-13T02:46:02.037Z,92871.84
2022-10-13T02:49:05.147Z,92875.03
2022-10-13T02:52:08.535Z,92870.38
2022-10-13T02:55:13.763Z,92871.63
2022-10-13T02:58:17.638Z,92870.94
2022-10-13T03:01:20.697Z,92874.81
2022-10-13T03:04:23.700Z,92861.03
2022-10-13T03:07:28.850Z,92868.78
2022-10-13T03:10:32.656Z,92864.16
2022-10-13T03:13:37.251Z,92865.41
2022-10-13T03:16:42.327Z,92852.88
2022-10-13T03:19:46.329Z,92846.16
2022-10-13T03:22:53.414Z,92842.06
2022-10-13T03:25:56.895Z,92837.31
2022-10-13T03:28:59.970Z,92820.78
2022-10-13T03:32:03.177Z,92819.34
2022-10-13T03:35:07.015Z,92821.25
2022-10-13T03:38:10.051Z,92821.81
2022-10-13T03:41:16.051Z,92815.19
2022-10-13T03:44:21.007Z,92808.50
2022-10-13T03:47:24.239Z,92800.47
2022-10-13T03:50:27.446Z,92804.19
2022-10-13T03:53:30.736Z,92798.19
2022-10-13T03:56:33.676Z,92792.19
2022-10-13T03:59:37.066Z,92782.75
2022-10-13T04:02:40.264Z,92775.28
2022-10-13T04:05:43.939Z,92771.81
2022-10-13T04:08:47.148Z,92774.22
2022-10-13T04:11:53.409Z,92766.34
2022-10-13T04:14:56.434Z,92762.84
2022-10-13T04:17:59.487Z,92756.59
2022-10-13T04:21:02.542Z,92755.03
2022-10-13T04:24:06.319Z,92738.91
2022-10-13T04:27:09.434Z,92734.75
2022-10-13T04:30:13.701Z,92733.84
2022-10-13T04:33:16.767Z,92726.34
2022-10-13T04:36:20.265Z,92730.72
2022-10-13T04:39:25.917Z,92733.91
2022-10-13T04:42:28.968Z,92725.97
2022-10-13T04:45:31.935Z,92724.41
2022-10-13T04:48:34.957Z,92721.44
2022-10-13T04:51:38.769Z,92725.34
2022-10-13T04:54:42.934Z,92713.53
2022-10-13T04:57:46.077Z,92707.53
2022-10-13T05:00:49.150Z,92705.56
2022-10-13T05:03:57.095Z,92691.56
2022-10-13T05:07:17.166Z,92691.97
2022-10-13T05:10:21.578Z,92692.81
2022-10-13T05:13:25.829Z,92683.91
2022-10-13T05:16:33.168Z,92681.47
2022-10-13T05:19:36.108Z,92678.47
2022-10-13T05:22:39.318Z,92674.31
2022-10-13T05:25:42.360Z,92666.19
2022-10-13T05:28:48.887Z,92664.75
2022-10-13T05:31:52.028Z,92661.19
2022-10-13T05:34:58.472Z,92650.94
2022-10-13T05:38:01.443Z,92644.13
2022-10-13T05:41:06.705Z,92646.41
2022-10-13T05:44:10.497Z,92648.22
2022-10-13T05:47:19.384Z,92640.66
2022-10-13T05:50:22.453Z,92632.09
2022-10-13T05:53:32.631Z,92626.13
2022-10-13T05:56:47.007Z,92624.06
2022-10-13T06:00:10.803Z,92621.06
2022-10-13T06:03:21.766Z,92608.16
2022-10-13T06:06:31.154Z,92610.88
2022-10-13T06:09:38.398Z,92611.41
2022-10-13T06:12:41.367Z,92608.47
2022-10-13T06:15:44.448Z,92603.88
2022-10-13T06:18:47.747Z,92606.31
2022-10-13T06:21:50.800Z,92597.47
2022-10-13T06:24:53.873Z,92595.97
2022-10-13T06:28:01.153Z,92598.56
2022-10-13T06:31:07.234Z,92599.28
2022-10-13T06:34:10.148Z,92596.44
2022-10-13T06:37:13.184Z,92594.81
2022-10-13T06:40:17.263Z,92591.31
2022-10-13T06:43:20.212Z,92584.75
2022-10-13T06:46:26.360Z,92581.78
2022-10-13T06:49:29.319Z,92586.09
2022-10-13T06:52:32.373Z,92581.41
2022-10-13T06:55:35.646Z,92573.91
2022-10-13T06:58:38.993Z,92580.63
2022-10-13T07:01:42.097Z,92584.63
2022-10-13T07:04:48.467Z,92570.06
2022-10-13T07:07:54.638Z,92575.84
2022-10-13T07:10:58.398Z,92571.03
2022-10-13T07:17:04.732Z,92581.09
2022-10-13T07:20:08.722Z,92573.47
2022-10-13T07:23:11.815Z,92565.69
2022-10-13T07:26:16.742Z,92575.03
2022-10-13T07:29:19.553Z,92569.09
2022-10-13T07:32:23.080Z,92565.66
2022-10-13T07:35:30.493Z,92565.94
2022-10-13T07:38:35.342Z,92566.16
2022-10-13T07:41:38.787Z,92568.97
2022-10-13T07:44:41.858Z,92558.41
2022-10-13T07:47:44.876Z,92554.31
2022-10-13T07:50:47.990Z,92558.41
2022-10-13T07:53:50.981Z,92553.91
2022-10-13T07:56:55.897Z,92542.31
2022-10-13T07:59:59.226Z,92550.41
2022-10-13T08:03:02.289Z,92537.41
2022-10-13T08:06:06.570Z,92549.41
2022-10-13T08:09:10.408Z,92543.03
2022-10-13T08:12:13.642Z,92545.69
2022-10-13T08:15:19.669Z,92545.13
2022-10-13T08:18:22.640Z,92544.53
2022-10-13T08:21:53.311Z,92540.00
2022-10-13T08:24:51.616Z,92534.78
2022-10-13T08:27:58.199Z,92540.88
2022-10-13T08:31:03.438Z,92547.03
2022-10-13T08:34:06.663Z,92547.25
2022-10-13T08:37:15.624Z,92542.72
2022-10-13T08:40:23.519Z,92542.25
2022-10-13T08:43:27.361Z,92541.06
2022-10-13T08:46:39.659Z,92546.50
2022-10-13T08:49:44.398Z,92542.72
2022-10-13T08:52:56.022Z,92540.25
2022-10-13T08:56:00.797Z,92541.09
2022-10-13T08:59:05.779Z,92538.63
2022-10-13T09:02:30.681Z,92541.97
2022-10-13T09:05:51.574Z,92542.19
2022-10-13T09:08:58.109Z,92541.19
2022-10-13T09:12:01.250Z,92536.81
2022-10-13T09:15:10.545Z,92538.94
2022-10-13T09:18:14.699Z,92532.53
2022-10-13T09:21:24.865Z,92536.66
2022-10-13T09:24:28.316Z,92532.84
2022-10-13T09:28:02.344Z,92534.97
2022-10-13T09:31:14.504Z,92539.03
2022-10-13T09:34:20.522Z,92531.34
2022-10-13T09:37:26.320Z,92540.59
2022-10-13T09:40:32.332Z,92526.22
2022-10-13T09:43:40.126Z,92535.50
2022-10-13T09:46:58.174Z,92535.69
2022-10-13T09:50:17.700Z,92541.69
2022-10-13T09:53:23.820Z,92539.19
2022-10-13T09:56:39.760Z,92537.28
2022-10-13T10:00:10.981Z,92531.50
2022-10-13T10:03:35.273Z,92532.28
2022-10-13T10:06:40.994Z,92534.91
2022-10-13T10:09:52.087Z,92526.28
2022-10-13T10:12:55.249Z,92529.47
2022-10-13T10:16:11.912Z,92528.03
2022-10-13T10:19:31.191Z,92539.25
2022-10-13T10:22:52.327Z,92532.19
2022-10-13T10:26:07.360Z,92540.22
2022-10-13T10:29:34.701Z,92535.13
2022-10-13T10:32:53.260Z,92539.84
2022-10-13T10:36:17.542Z,92546.59
2022-10-13T10:39:52.815Z,92543.50
2022-10-13T10:43:23.074Z,92550.91
2022-10-13T10:46:31.360Z,92552.28
2022-10-13T10:49:40.041Z,92552.38
2022-10-13T10:52:58.572Z,92550.25
2022-10-13T10:56:40.355Z,92554.06
2022-10-13T11:00:06.456Z,92535.06
2022-10-13T11:03:48.245Z,92552.56
2022-10-13T11:06:51.310Z,92553.91
2022-10-13T11:09:58.008Z,92554.56
2022-10-13T11:13:01.093Z,92550.66
2022-10-13T11:16:29.388Z,92546.75
2022-10-13T11:19:38.000Z,92558.72
2022-10-13T11:22:41.231Z,92553.59
2022-10-13T11:25:49.479Z,92549.16
2022-10-13T11:28:52.701Z,92552.53
2022-10-13T11:31:56.149Z,92557.75
2022-10-13T11:35:06.234Z,92556.41
2022-10-13T11:38:26.922Z,92555.81
2022-10-13T11:41:37.845Z,92557.25
2022-10-13T11:45:25.649Z,92560.59
2022-10-13T11:48:40.677Z,92562.53
2022-10-13T11:51:52.999Z,92563.81
2022-10-13T11:55:27.380Z,92563.75
2022-10-13T11:58:34.951Z,92565.84
2022-10-13T12:01:44.631Z,92561.66
2022-10-13T12:05:07.992Z,92556.66
2022-10-13T12:08:14.844Z,92551.69
2022-10-13T12:11:30.396Z,92547.81
2022-10-13T12:14:40.581Z,92555.09
2022-10-13T12:17:45.293Z,92554.56
2022-10-13T12:20:56.650Z,92558.47
2022-10-13T12:24:09.087Z,92535.66
2022-10-13T12:27:22.123Z,92553.06
2022-10-13T12:30:39.032Z,92552.91
2022-10-13T12:33:42.198Z,92556.19
2022-10-13T12:36:47.320Z,92555.56
2022-10-13T12:39:50.718Z,92554.19
2022-10-13T12:42:54.705Z,92562.06
2022-10-13T12:45:58.037Z,92563.47
2022-10-13T12:49:32.205Z,92568.03
2022-10-13T12:52:35.507Z,92572.06
2022-10-13T12:55:59.570Z,92568.19
2022-10-13T12:59:02.743Z,92578.16
2022-10-13T13:02:38.862Z,92576.84
2022-10-13T13:05:51.935Z,92582.16
2022-10-13T13:09:15.655Z,92577.50
2022-10-13T13:12:27.209Z,92578.25
2022-10-13T13:15:36.765Z,92579.47
2022-10-13T13:18:42.872Z,92585.22
2022-10-13T13:21:45.920Z,92585.09
2022-10-13T13:24:51.732Z,92588.88
2022-10-13T13:27:55.915Z,92583.56
2022-10-13T13:30:59.434Z,92581.63
2022-10-13T13:34:02.405Z,92592.03
2022-10-13T13:37:05.499Z,92591.84
2022-10-13T13:40:15.355Z,92595.00
2022-10-13T13:43:18.562Z,92589.72
2022-10-13T13:46:24.372Z,92577.91
2022-10-13T13:49:27.344Z,92588.38
2022-10-13T13:52:30.348Z,92591.63
2022-10-13T13:55:33.677Z,92585.00
2022-10-13T13:58:36.936Z,92598.81
2022-10-13T14:01:41.422Z,92602.72
2022-10-13T14:04:45.051Z,92594.81
2022-10-13T14:07:48.189Z,92601.00
2022-10-13T14:10:51.295Z,92595.53
2022-10-13T14:13:54.282Z,92596.59
2022-10-13T14:17:04.338Z,92598.28
2022-10-13T14:20:08.315Z,92581.13
2022-10-13T14:23:13.889Z,92579.13
2022-10-13T14:26:17.113Z,92579.91
2022-10-13T14:29:20.467Z,92570.91
2022-10-13T14:32:23.537Z,92569.81
2022-10-13T14:35:27.010Z,92565.31
2022-10-13T14:38:30.323Z,92566.00
2022-10-13T14:41:33.445Z,92566.06
2022-10-13T14:44:36.594Z,92572.59
2022-10-13T14:47:41.471Z,92570.59
2022-10-13T14:50:45.143Z,92573.25
2022-10-13T14:53:48.238Z,92571.41
2022-10-13T14:56:51.856Z,92570.91
2022-10-13T14:59:58.007Z,92574.31
2022-10-13T15:03:05.476Z,92567.84
2022-10-13T15:06:11.163Z,92559.41
2022-10-13T15:09:14.228Z,92557.53
2022-10-13T15:12:17.513Z,92558.34
2022-10-13T15:15:20.947Z,92556.47
2022-10-13T15:18:28.372Z,92565.16
2022-10-13T15:21:38.658Z,92566.56
2022-10-13T15:24:42.126Z,92551.03
2022-10-13T15:27:45.212Z,92557.59
2022-10-13T15:30:48.184Z,92555.72
2022-10-13T15:33:54.456Z,92556.41
2022-10-13T15:36:58.956Z,92563.03
2022-10-13T15:40:01.935Z,92561.13
2022-10-13T15:43:05.680Z,92570.38
2022-10-13T15:46:11.937Z,92568.44
2022-10-13T15:49:14.880Z,92570.50
2022-10-13T15:52:18.435Z,92568.69
2022-10-13T15:55:21.709Z,92575.34
2022-10-13T15:58:24.696Z,92573.50
2022-10-13T16:01:27.634Z,92579.53
2022-10-13T16:04:34.869Z,92572.50
2022-10-13T16:07:41.840Z,92579.19
2022-10-13T16:10:45.090Z,92581.94
2022-10-13T16:13:49.950Z,92570.34
2022-10-13T16:16:52.918Z,92565.94
2022-10-13T16:19:56.150Z,92563.47
2022-10-13T16:22:59.212Z,92560.94
2022-10-13T16:26:06.585Z,92562.34
2022-10-13T16:29:09.589Z,92561.09
2022-10-13T16:32:12.634Z,92552.03
2022-10-13T16:35:15.775Z,92550.78
2022-10-13T16:38:18.777Z,92549.50
2022-10-13T16:41:22.060Z,92549.56
2022-10-13T16:44:25.388Z,92548.94
2022-10-13T16:47:28.477Z,92541.78
2022-10-13T16:50:31.406Z,92543.75
2022-10-13T16:53:35.103Z,92539.84
2022-10-13T16:56:38.159Z,92547.69
2022-10-13T16:59:41.672Z,92540.50
2022-10-13T17:02:44.659Z,92535.97
2022-10-13T17:05:47.661Z,92535.31
2022-10-13T17:08:50.703Z,92535.28
2022-10-13T17:11:53.786Z,92539.19
2022-10-13T17:14:57.015Z,92544.44
2022-10-13T17:17:59.991Z,92548.34
2022-10-13T17:21:06.186Z,92546.41
2022-10-13T17:24:09.504Z,92550.31
2022-10-13T17:27:12.508Z,92552.91
2022-10-13T17:30:15.705Z,92546.38
2022-10-13T17:33:18.703Z,92557.44
2022-10-13T17:36:29.984Z,92549.59
2022-10-13T17:39:35.061Z,92549.63
2022-10-13T17:42:39.096Z,92548.97
2022-10-13T17:45:42.130Z,92548.28
2022-10-13T17:48:45.892Z,92552.22
2022-10-13T17:51:53.005Z,92553.53
2022-10-13T17:54:56.519Z,92558.06
2022-10-13T17:58:00.682Z,92553.53
2022-10-13T18:01:13.281Z,92557.41
2022-10-13T18:04:19.572Z,92553.50
2022-10-13T18:07:22.953Z,92545.69
2022-10-13T18:10:26.082Z,92537.84
2022-10-13T18:13:30.682Z,92529.97
2022-10-13T18:16:34.047Z,92532.53
2022-10-13T18:19:40.215Z,92531.25
2022-10-13T18:22:43.559Z,92533.19
2022-10-13T18:25:46.564Z,92531.28
2022-10-13T18:28:50.473Z,92524.16
2022-10-13T18:31:59.279Z,92528.75
2022-10-13T18:35:02.306Z,92516.41
2022-10-13T18:38:05.569Z,92519.66
2022-10-13T18:41:14.830Z,92536.63
2022-10-13T18:44:20.527Z,92526.19
2022-10-13T18:47:23.773Z,92525.56
2022-10-13T18:50:27.854Z,92524.91
2022-10-13T18:53:33.074Z,92519.69
2022-10-13T18:56:39.527Z,92527.53
2022-10-13T18:59:42.865Z,92537.25
2022-10-13T19:02:45.965Z,92552.25
2022-10-13T19:05:49.343Z,92544.44
2022-10-13T19:08:52.382Z,92547.69
2022-10-13T19:11:58.286Z,92549.00
2022-10-13T19:15:01.236Z,92550.97
2022-10-13T19:18:04.786Z,92554.88
2022-10-13T19:21:08.300Z,92566.63
2022-10-13T19:24:11.391Z,92564.66
2022-10-13T19:27:14.431Z,92564.00
2022-10-13T19:30:17.521Z,92569.84
2022-10-13T19:33:21.733Z,92575.06
2022-10-13T19:36:37.988Z,92571.16
2022-10-13T19:39:41.113Z,92565.94
2022-10-13T19:42:44.129Z,92571.81
2022-10-13T19:45:59.786Z,92575.09
2022-10-13T19:49:04.041Z,92578.31
2022-10-13T19:52:07.453Z,92565.31
2022-10-13T19:55:14.183Z,92565.97
2022-10-13T19:58:17.775Z,92562.69
2022-10-13T20:01:21.779Z,92561.41
2022-10-13T20:04:24.971Z,92553.56
2022-10-13T20:07:27.986Z,92558.78
2022-10-13T20:10:31.053Z,92553.59
2022-10-13T20:13:34.012Z,92551.63
2022-10-13T20:16:38.432Z,92558.81
2022-10-13T20:19:41.667Z,92554.88
2022-10-13T20:22:44.682Z,92559.47
2022-10-13T20:25:48.286Z,92567.91
2022-10-13T20:28:52.560Z,92569.84
2022-10-13T20:31:55.614Z,92574.41
2022-10-13T20:34:58.670Z,92573.78
2022-10-13T20:38:01.729Z,92582.25
2022-10-13T20:41:10.710Z,92579.00
2022-10-13T20:44:13.703Z,92579.63
2022-10-13T20:47:16.676Z,92573.09
2022-10-13T20:50:19.737Z,92577.69
2022-10-13T20:53:22.710Z,92578.31
2022-10-13T20:56:26.978Z,92578.31
2022-10-13T20:59:29.966Z,92572.44
2022-10-13T21:02:33.517Z,92573.75
2022-10-13T21:05:36.504Z,92568.53
2022-10-13T21:08:40.245Z,92567.22
2022-10-13T21:11:43.332Z,92575.72
2022-10-13T21:14:46.480Z,92582.19
2022-10-13T21:17:50.106Z,92576.97
2022-10-13T21:20:53.162Z,92575.00
2022-10-13T21:23:58.832Z,92579.56
2022-10-13T21:27:01.801Z,92586.06
2022-10-13T21:30:06.129Z,92601.75
2022-10-13T21:33:09.136Z,92601.72
2022-10-13T21:36:15.664Z,92606.94
2022-10-13T21:39:19.257Z,92606.28
2022-10-13T21:42:22.724Z,92605.63
2022-10-13T21:45:25.732Z,92599.75
2022-10-13T21:48:28.721Z,92599.78
2022-10-13T21:51:34.823Z,92612.84
2022-10-13T21:54:38.203Z,92611.53
2022-10-13T21:57:41.175Z,92628.50
2022-10-13T22:00:44.372Z,92627.84
2022-10-13T22:03:48.808Z,92626.56
2022-10-13T22:06:55.130Z,92635.69
2022-10-13T22:10:00.945Z,92625.25
2022-10-13T22:13:03.952Z,92621.97
2022-10-13T22:16:09.204Z,92638.31
2022-10-13T22:19:18.223Z,92640.25
2022-10-13T22:22:21.235Z,92640.91
2022-10-13T22:25:24.378Z,92642.91
2022-10-13T22:28:27.727Z,92644.84
2022-10-13T22:31:31.290Z,92640.94
2022-10-13T22:34:34.652Z,92647.44
2022-10-13T22:37:37.679Z,92653.34
2022-10-13T22:40:41.446Z,92651.38
2022-10-13T22:43:48.486Z,92656.59
2022-10-13T22:46:51.491Z,92653.94
2022-10-13T22:49:54.542Z,92656.56
2022-10-13T22:52:57.792Z,92663.72
2022-10-13T22:56:01.608Z,92660.47
2022-10-13T22:59:07.221Z,92658.50
2022-10-13T23:02:10.344Z,92660.47
2022-10-13T23:05:14.738Z,92664.41
2022-10-13T23:08:17.947Z,92665.69
2022-10-13T23:11:21.259Z,92664.41
2022-10-13T23:14:24.257Z,92676.78
2022-10-13T23:17:27.211Z,92681.34
2022-10-13T23:20:30.954Z,92678.09
2022-10-13T23:23:34.662Z,92680.72
2022-10-13T23:26:37.673Z,92676.81
2022-10-13T23:29:40.698Z,92673.53
2022-10-13T23:32:43.781Z,92680.72
2022-10-13T23:35:55.252Z,92683.97
2022-10-13T23:39:00.687Z,92682.66
2022-10-13T23:42:03.861Z,92685.25
2022-10-13T23:45:07.248Z,92677.41
2022-10-13T23:48:10.254Z,92681.31
2022-10-13T23:51:19.050Z,92681.31
2022-10-13T23:54:22.079Z,92672.22
2022-10-13T23:57:25.180Z,92679.38
